Governador Eugenio Barros, Brazil
Current Conditions -  °F | °C
As of 11:00 AM on Saturday 25 Oct 2014 (Local Time) from SBTE Reporting Station
Scattered Clouds Scattered Clouds  
Wind Chill: 33°   Ceiling: Unl
Heat Index: 35°   Visibility: 6mi
Dew Point: 19°   Wind: 7mph
Humidity: 43%   Direction: 110°ESE
Pressure: 29.85"   Gusts: NA
Location:  5.32°S, 44.25°W
Report Text: SBTE 251400Z 11006KT 9999 SCT020 33/19 Q1011
Loading
Personal Weather Stations






























Interactive Weather Map
Tropical Storm Tracking
New forecast layout! Learn more

10-Day Weather Forecast

Advertisements
Track Severe Weather on mobile